This is the latest recevied weather packets stored in our database for station/object DPX206-15. If no packets are shown the sender has not sent any weather packets the latest 10 day(s).
| Time | Temp. | Humidity | Pressure | Rain* | Wind** | Luminosity | Snow |
|---|---|---|---|---|---|---|---|
| 1777525093 | 3.89° C | 67% | 1033 hPa | 0 mm | - | 42 W/m² | - |
| 1777524342 | 2.22° C | 68% | 1032.8 hPa | 0 mm | - | 22 W/m² | - |
| 1777523592 | 1.11° C | 69% | 1032.5 hPa | 0 mm | - | 17 W/m² | - |
| 1777522841 | 0.56° C | 69% | 1032.8 hPa | 0 mm | - | 9 W/m² | - |
| 1777522091 | 0.56° C | 69% | 1032.7 hPa | 0 mm | - | 3 W/m² | - |
| 1777521341 | 0.56° C | 69% | 1032.6 hPa | 0 mm | - | 1 W/m² | - |
| 1777520590 | 0.56° C | 68% | 1032.3 hPa | 0 mm | - | 0 W/m² | - |
| 1777519840 | 0.56° C | 68% | 1032.6 hPa | 0 mm | - | 0 W/m² | - |
| 1777519090 | 0.56° C | 68% | 1032.6 hPa | 0 mm | - | 0 W/m² | - |
| 1777518339 | 0.56° C | 68% | 1032.5 hPa | 0 mm | - | 0 W/m² | - |
| 1777517589 | 1.11° C | 67% | 1032.6 hPa | 0 mm | - | 0 W/m² | - |
| 1777516839 | 1.11° C | 67% | 1032.3 hPa | 0 mm | - | 0 W/m² | - |
| 1777516088 | 1.11° C | 67% | 1032.6 hPa | 0 mm | - | 0 W/m² | - |
| 1777515338 | 1.11° C | 67% | 1032.5 hPa | 0 mm | - | 0 W/m² | - |
| 1777514588 | 1.11° C | 67% | 1032.3 hPa | 0 mm | - | 0 W/m² | - |
| 1777513837 | 1.67° C | 68% | 1032 hPa | 0 mm | - | 0 W/m² | - |
| 1777513087 | 1.67° C | 67% | 1032.2 hPa | 0 mm | - | 0 W/m² | - |
| 1777510836 | 1.67° C | 67% | 1032 hPa | 0 mm | - | 0 W/m² | - |
| 1777509335 | 2.22° C | 67% | 1032 hPa | 0 mm | - | 0 W/m² | - |
| 1777501831 | 3.33° C | 64% | 1031.8 hPa | 0 mm | - | 0 W/m² | - |
| 1777499579 | 3.89° C | 61% | 1031.7 hPa | 0 mm | - | 0 W/m² | - |
| 1777496578 | 5° C | 57% | 1031.4 hPa | 0 mm | - | 0 W/m² | - |
| 1777495077 | 5.56° C | 54% | 1031.3 hPa | 0 mm | - | 0 W/m² | - |
| 1777494327 | 6.11° C | 53% | 1031.1 hPa | 0 mm | - | 0 W/m² | - |
| 1777493577 | 6.67° C | 51% | 1031 hPa | 0 mm | - | 0 W/m² | - |
* Rain latest hour (hover to see other rain measurements)
** Current wind speed in m/s (hover to see current wind gust speed)